createdAt,value
2022-10-06T00:02:58.573Z,11.43
2022-10-06T00:06:01.217Z,12.30
2022-10-06T00:09:02.791Z,17.98
2022-10-06T00:12:05.395Z,21.45
2022-10-06T00:15:07.966Z,20.10
2022-10-06T00:18:10.069Z,18.60
2022-10-06T00:21:11.671Z,17.65
2022-10-06T00:24:13.212Z,15.90
2022-10-06T00:27:15.292Z,13.35
2022-10-06T00:30:19.822Z,10.50
2022-10-06T00:33:21.374Z,8.93
2022-10-06T00:36:22.948Z,9.20
2022-10-06T00:39:24.500Z,9.52
2022-10-06T00:42:30.439Z,9.45
2022-10-06T00:45:43.041Z,9.25
2022-10-06T00:48:45.659Z,10.70
2022-10-06T00:52:09.187Z,11.23
2022-10-06T00:55:10.735Z,11.57
2022-10-06T00:58:12.386Z,12.85
2022-10-06T01:01:14.073Z,14.60
2022-10-06T01:04:17.776Z,16.40
2022-10-06T01:07:19.676Z,21.10
2022-10-06T01:10:21.349Z,34.92
2022-10-06T01:13:22.944Z,36.15
2022-10-06T01:16:25.133Z,36.67
2022-10-06T01:19:49.638Z,30.37
2022-10-06T01:23:01.601Z,27.02
2022-10-06T01:26:05.171Z,24.92
2022-10-06T01:29:06.750Z,27.02
2022-10-06T01:32:08.311Z,26.95
2022-10-06T01:35:10.255Z,26.10
2022-10-06T01:38:11.813Z,25.77
2022-10-06T01:41:13.435Z,27.42
2022-10-06T01:44:15.058Z,27.08
2022-10-06T01:47:16.627Z,29.55
2022-10-06T01:50:18.200Z,30.83
2022-10-06T01:53:19.865Z,30.35
2022-10-06T01:56:21.499Z,22.40
2022-10-06T01:59:23.153Z,14.70
2022-10-06T02:02:24.772Z,14.18
2022-10-06T02:05:26.356Z,12.53
2022-10-06T02:08:28.274Z,13.02
2022-10-06T02:11:30.010Z,20.35
2022-10-06T02:14:32.722Z,16.40
2022-10-06T02:17:34.287Z,18.65
2022-10-06T02:20:36.226Z,22.40
2022-10-06T02:23:37.925Z,35.55
2022-10-06T02:26:39.650Z,31.45
2022-10-06T02:29:41.274Z,23.60
2022-10-06T02:32:44.187Z,23.98
2022-10-06T02:35:46.553Z,19.93
2022-10-06T02:38:48.115Z,19.05
2022-10-06T02:41:49.698Z,18.85
2022-10-06T02:44:52.264Z,16.33
2022-10-06T02:47:54.699Z,14.73
2022-10-06T02:51:01.221Z,12.20
2022-10-06T02:54:02.833Z,11.82
2022-10-06T02:57:04.412Z,12.77
2022-10-06T03:00:07.376Z,12.75
2022-10-06T03:03:09.033Z,12.93
2022-10-06T03:06:24.886Z,13.43
2022-10-06T03:09:26.452Z,13.75
2022-10-06T03:12:28.084Z,14.90
2022-10-06T03:15:29.676Z,16.67
2022-10-06T03:18:31.842Z,17.05
2022-10-06T03:21:41.304Z,15.67
2022-10-06T03:24:42.898Z,14.68
2022-10-06T03:27:44.496Z,14.02
2022-10-06T03:30:46.069Z,13.38
2022-10-06T03:33:47.888Z,14.10
2022-10-06T03:36:49.513Z,13.53
2022-10-06T03:39:51.110Z,13.40
2022-10-06T03:42:52.659Z,14.60
2022-10-06T03:45:57.966Z,14.55
2022-10-06T03:49:00.709Z,13.75
2022-10-06T03:52:02.344Z,13.00
2022-10-06T03:55:04.154Z,13.75
2022-10-06T03:58:05.743Z,13.88
2022-10-06T04:01:14.566Z,13.60
2022-10-06T04:04:16.906Z,13.73
2022-10-06T04:07:18.475Z,14.00
2022-10-06T04:10:20.052Z,12.32
2022-10-06T04:13:22.041Z,13.32
2022-10-06T04:16:25.386Z,13.25
2022-10-06T04:19:27.425Z,12.50
2022-10-06T04:22:29.194Z,13.47
2022-10-06T04:25:30.813Z,13.35
2022-10-06T04:28:33.604Z,13.32
2022-10-06T04:31:39.329Z,12.57
2022-10-06T04:34:41.024Z,14.00
2022-10-06T04:37:42.657Z,12.77
2022-10-06T04:40:44.200Z,13.73
2022-10-06T04:43:46.753Z,15.27
2022-10-06T04:46:48.455Z,14.95
2022-10-06T04:49:50.111Z,15.35
2022-10-06T04:52:53.044Z,15.53
2022-10-06T04:56:01.994Z,15.38
2022-10-06T04:59:03.643Z,16.17
2022-10-06T05:02:06.969Z,15.48
2022-10-06T05:05:08.757Z,16.17
2022-10-06T05:08:10.347Z,16.07
2022-10-06T05:11:15.188Z,15.93
2022-10-06T05:14:19.274Z,16.42
2022-10-06T05:17:20.893Z,16.15
2022-10-06T05:20:22.988Z,16.00
2022-10-06T05:23:25.931Z,16.10
2022-10-06T05:26:28.979Z,15.68
2022-10-06T05:29:30.586Z,15.27
2022-10-06T05:32:35.924Z,15.35
2022-10-06T05:35:37.830Z,16.10
2022-10-06T05:38:39.564Z,15.50
2022-10-06T05:41:41.125Z,15.68
2022-10-06T05:44:42.820Z,14.43
2022-10-06T05:47:44.463Z,15.55
2022-10-06T05:50:46.030Z,14.17
2022-10-06T05:53:48.631Z,13.97
2022-10-06T05:56:50.299Z,15.32
2022-10-06T05:59:52.004Z,14.15
2022-10-06T06:02:53.761Z,14.80
2022-10-06T06:05:55.496Z,14.20
2022-10-06T06:08:57.973Z,15.17
2022-10-06T06:12:00.217Z,13.65
2022-10-06T06:15:20.872Z,13.60
2022-10-06T06:18:22.544Z,13.80
2022-10-06T06:21:25.117Z,14.07
2022-10-06T06:24:26.694Z,13.77
2022-10-06T06:27:28.539Z,13.48
2022-10-06T06:30:30.140Z,14.13
2022-10-06T06:33:31.838Z,12.93
2022-10-06T06:36:35.966Z,13.73
2022-10-06T06:39:37.653Z,13.10
2022-10-06T06:42:39.288Z,13.23
2022-10-06T06:45:40.971Z,12.55
2022-10-06T06:48:42.781Z,12.05
2022-10-06T06:51:44.979Z,11.87
2022-10-06T06:54:48.502Z,12.93
2022-10-06T06:57:50.152Z,12.60
2022-10-06T07:00:51.785Z,12.02
2022-10-06T07:03:57.932Z,11.55
2022-10-06T07:07:00.086Z,12.83
2022-10-06T07:10:01.902Z,12.50
2022-10-06T07:13:04.440Z,12.55
2022-10-06T07:16:24.918Z,12.35
2022-10-06T07:19:45.142Z,12.10
2022-10-06T07:23:05.525Z,11.87
2022-10-06T07:26:07.365Z,12.23
2022-10-06T07:29:09.148Z,11.27
2022-10-06T07:32:10.742Z,10.35
2022-10-06T07:35:12.439Z,11.38
2022-10-06T07:38:14.333Z,11.80
2022-10-06T07:41:20.346Z,11.57
2022-10-06T07:44:23.149Z,11.70
2022-10-06T07:47:24.816Z,11.43
2022-10-06T07:50:26.776Z,10.73
2022-10-06T07:53:28.366Z,11.27
2022-10-06T07:56:30.115Z,11.10
2022-10-06T07:59:32.163Z,10.50
2022-10-06T08:02:35.832Z,12.40
2022-10-06T08:05:39.533Z,12.52
2022-10-06T08:08:41.650Z,12.77
2022-10-06T08:11:45.186Z,12.70
2022-10-06T08:14:47.507Z,14.45
2022-10-06T08:17:49.117Z,13.23
2022-10-06T08:20:50.716Z,13.15
2022-10-06T08:23:52.908Z,12.63
2022-10-06T08:26:54.527Z,12.50
2022-10-06T08:29:56.321Z,13.60
2022-10-06T08:32:58.508Z,13.18
2022-10-06T08:36:08.762Z,14.10
2022-10-06T08:39:10.344Z,13.83
2022-10-06T08:42:18.785Z,13.57
2022-10-06T08:45:26.754Z,13.02
2022-10-06T08:48:29.811Z,13.98
2022-10-06T08:51:55.838Z,13.43
2022-10-06T08:55:01.490Z,14.50
2022-10-06T08:58:21.566Z,15.37
2022-10-06T09:01:24.821Z,15.18
2022-10-06T09:04:29.248Z,15.52
2022-10-06T09:07:48.414Z,16.40
2022-10-06T09:11:15.092Z,16.67
2022-10-06T09:14:19.324Z,14.53
2022-10-06T09:17:30.121Z,14.38
2022-10-06T09:20:34.923Z,14.43
2022-10-06T09:23:48.713Z,14.50
2022-10-06T09:26:50.357Z,13.77
2022-10-06T09:29:52.219Z,14.20
2022-10-06T09:33:00.142Z,14.80
2022-10-06T09:36:06.404Z,14.35
2022-10-06T09:39:10.141Z,13.07
2022-10-06T09:42:19.811Z,13.37
2022-10-06T09:45:25.952Z,12.90
2022-10-06T09:48:27.541Z,12.05
2022-10-06T09:51:33.976Z,11.82
2022-10-06T09:54:38.724Z,11.80
2022-10-06T09:57:51.106Z,11.20
2022-10-06T10:01:01.306Z,11.80
2022-10-06T10:04:22.688Z,11.80
2022-10-06T10:07:29.492Z,12.77
2022-10-06T10:10:31.053Z,11.65
2022-10-06T10:13:44.163Z,12.80
2022-10-06T10:16:49.667Z,10.97
2022-10-06T10:19:54.560Z,12.05
2022-10-06T10:22:58.403Z,13.32
2022-10-06T10:26:18.715Z,13.05
2022-10-06T10:30:01.738Z,13.50
2022-10-06T10:33:14.813Z,13.70
2022-10-06T10:36:16.899Z,12.60
2022-10-06T10:39:32.094Z,12.23
2022-10-06T10:42:41.577Z,12.02
2022-10-06T10:45:46.443Z,11.47
2022-10-06T10:49:15.531Z,10.97
2022-10-06T10:52:21.711Z,11.18
2022-10-06T10:55:40.159Z,10.15
2022-10-06T10:58:43.792Z,10.20
2022-10-06T11:01:53.293Z,10.57
2022-10-06T11:05:01.557Z,10.87
2022-10-06T11:08:34.181Z,10.15
2022-10-06T11:11:52.040Z,9.50
2022-10-06T11:15:02.224Z,8.98
2022-10-06T11:18:12.156Z,8.60
2022-10-06T11:21:24.124Z,9.80
2022-10-06T11:24:31.858Z,9.88
2022-10-06T11:27:40.015Z,9.82
2022-10-06T11:30:54.578Z,9.95
2022-10-06T11:33:58.793Z,10.50
2022-10-06T11:37:06.402Z,10.40
2022-10-06T11:40:39.680Z,11.25
2022-10-06T11:43:49.607Z,10.77
2022-10-06T11:47:14.400Z,11.48
2022-10-06T11:50:36.569Z,11.73
2022-10-06T11:53:39.632Z,11.57
2022-10-06T11:56:41.316Z,11.77
2022-10-06T11:59:43.047Z,12.57
2022-10-06T12:02:45.649Z,13.18
2022-10-06T12:05:56.120Z,12.83
2022-10-06T12:08:58.558Z,12.93
2022-10-06T12:12:15.509Z,12.43
2022-10-06T12:18:48.946Z,13.32
2022-10-06T12:22:01.155Z,12.17
2022-10-06T12:25:25.144Z,12.20
2022-10-06T12:28:55.645Z,11.63
2022-10-06T12:32:13.097Z,11.02
2022-10-06T12:35:32.058Z,11.43
2022-10-06T12:38:33.992Z,6.57
2022-10-06T12:42:01.078Z,6.37
2022-10-06T12:45:02.665Z,5.80
2022-10-06T12:48:04.711Z,10.65
2022-10-06T12:51:06.240Z,10.43
2022-10-06T12:54:10.629Z,10.20
2022-10-06T12:57:20.159Z,10.43
2022-10-06T13:00:23.995Z,10.20
2022-10-06T13:03:25.701Z,10.18
2022-10-06T13:06:27.380Z,9.60
2022-10-06T13:09:29.036Z,10.00
2022-10-06T13:12:32.007Z,9.77
2022-10-06T13:15:37.057Z,8.82
2022-10-06T13:18:38.621Z,8.98
2022-10-06T13:21:40.184Z,9.25
2022-10-06T13:24:41.766Z,8.83
2022-10-06T13:27:50.234Z,5.83
2022-10-06T13:34:13.620Z,5.35
2022-10-06T13:37:15.415Z,4.85
2022-10-06T13:40:21.735Z,4.83
2022-10-06T13:43:29.194Z,5.00
2022-10-06T13:46:32.145Z,5.03
2022-10-06T13:49:56.451Z,5.78
2022-10-06T13:52:58.461Z,5.10
2022-10-06T13:56:01.067Z,4.63
2022-10-06T13:59:31.495Z,5.50
2022-10-06T14:02:33.572Z,4.72
2022-10-06T14:05:42.377Z,4.60
2022-10-06T14:08:50.384Z,4.88
2022-10-06T14:12:16.408Z,5.20
2022-10-06T14:15:22.907Z,5.73
2022-10-06T14:18:31.155Z,5.55
2022-10-06T14:21:34.058Z,5.45
2022-10-06T14:24:37.503Z,5.35
2022-10-06T14:27:39.172Z,4.87
2022-10-06T14:30:40.760Z,5.20
2022-10-06T14:33:42.757Z,5.43
2022-10-06T14:36:46.389Z,5.13
2022-10-06T14:39:50.418Z,4.93
2022-10-06T14:42:52.017Z,5.80
2022-10-06T14:45:53.639Z,5.07
2022-10-06T14:48:55.566Z,5.05
2022-10-06T14:51:57.175Z,4.75
2022-10-06T14:54:59.225Z,4.70
2022-10-06T14:58:03.049Z,5.70
2022-10-06T15:01:06.254Z,4.87
2022-10-06T15:04:14.473Z,5.05
2022-10-06T15:07:34.358Z,5.35
2022-10-06T15:10:38.146Z,5.35
2022-10-06T15:13:39.721Z,5.03
2022-10-06T15:16:42.505Z,5.50
2022-10-06T15:19:44.116Z,5.68
2022-10-06T15:22:45.695Z,6.13
2022-10-06T15:26:16.111Z,6.43
2022-10-06T15:29:17.830Z,6.00
2022-10-06T15:32:19.417Z,7.10
2022-10-06T15:35:21.019Z,7.78
2022-10-06T15:38:22.572Z,8.07
2022-10-06T15:41:27.458Z,7.57
2022-10-06T15:44:31.590Z,8.60
2022-10-06T15:47:33.253Z,7.23
2022-10-06T15:50:36.264Z,7.60
2022-10-06T15:53:37.853Z,7.72
2022-10-06T15:56:39.486Z,8.70
2022-10-06T15:59:41.106Z,8.57
2022-10-06T16:02:42.809Z,7.77
2022-10-06T16:05:49.857Z,8.50
2022-10-06T16:08:51.395Z,8.27
2022-10-06T16:11:53.296Z,8.60
2022-10-06T16:14:54.971Z,8.40
2022-10-06T16:17:56.520Z,8.20
2022-10-06T16:20:58.248Z,8.07
2022-10-06T16:23:59.869Z,7.85
2022-10-06T16:27:04.807Z,7.72
2022-10-06T16:30:07.321Z,7.93
2022-10-06T16:33:09.063Z,7.27
2022-10-06T16:36:11.074Z,7.40
2022-10-06T16:39:14.354Z,7.60
2022-10-06T16:42:16.689Z,7.20
2022-10-06T16:45:18.255Z,7.90
2022-10-06T16:48:19.925Z,7.57
2022-10-06T16:51:22.947Z,7.47
2022-10-06T16:54:24.887Z,7.88
2022-10-06T16:57:30.249Z,7.57
2022-10-06T17:00:32.168Z,8.13
2022-10-06T17:03:33.893Z,7.57
2022-10-06T17:06:40.018Z,7.05
2022-10-06T17:10:01.487Z,7.68
2022-10-06T17:13:03.217Z,7.72
2022-10-06T17:16:06.923Z,7.33
2022-10-06T17:19:09.993Z,7.70
2022-10-06T17:22:11.649Z,8.85
2022-10-06T17:25:14.333Z,8.27
2022-10-06T17:28:20.093Z,8.13
2022-10-06T17:31:23.815Z,6.90
2022-10-06T17:34:30.741Z,7.87
2022-10-06T17:37:33.950Z,9.00
2022-10-06T17:40:35.648Z,8.45
2022-10-06T17:43:40.922Z,8.88
2022-10-06T17:46:44.051Z,10.70
2022-10-06T17:49:45.901Z,10.70
2022-10-06T17:52:47.976Z,13.80
2022-10-06T17:55:49.840Z,17.42
2022-10-06T17:59:00.776Z,19.92
2022-10-06T18:02:02.963Z,22.53
2022-10-06T18:05:05.978Z,23.70
2022-10-06T18:08:10.234Z,22.63
2022-10-06T18:11:31.409Z,19.13
2022-10-06T18:14:33.582Z,16.00
2022-10-06T18:17:35.213Z,16.50
2022-10-06T18:20:41.157Z,15.43
2022-10-06T18:23:43.512Z,17.58
2022-10-06T18:26:48.148Z,17.83
2022-10-06T18:29:49.794Z,20.92
2022-10-06T18:36:15.034Z,24.43
2022-10-06T18:39:17.044Z,21.80
2022-10-06T18:42:19.390Z,20.00
2022-10-06T18:45:39.838Z,19.35
2022-10-06T18:48:56.706Z,18.43
2022-10-06T18:51:58.707Z,16.93
2022-10-06T18:55:00.453Z,15.65
2022-10-06T18:58:02.395Z,15.23
2022-10-06T19:01:04.702Z,12.82
2022-10-06T19:04:09.784Z,10.27
2022-10-06T19:07:11.395Z,9.87
2022-10-06T19:10:12.939Z,9.00
2022-10-06T19:13:14.508Z,9.25
2022-10-06T19:16:17.571Z,10.02
2022-10-06T19:19:19.575Z,8.70
2022-10-06T19:22:24.497Z,8.23
2022-10-06T19:25:26.903Z,8.30
2022-10-06T19:28:30.379Z,8.25
2022-10-06T19:31:32.020Z,9.45
2022-10-06T19:34:34.833Z,9.67
2022-10-06T19:37:36.409Z,9.97
2022-10-06T19:40:38.015Z,10.80
2022-10-06T19:43:39.591Z,11.20
2022-10-06T19:46:41.177Z,11.55
2022-10-06T19:49:42.970Z,11.83
2022-10-06T19:52:45.237Z,12.13
2022-10-06T19:55:47.698Z,12.23
2022-10-06T19:58:49.918Z,13.77
2022-10-06T20:01:51.954Z,13.10
2022-10-06T20:04:53.577Z,13.77
2022-10-06T20:07:55.353Z,13.30
2022-10-06T20:11:08.160Z,12.70
2022-10-06T20:14:19.748Z,14.32
2022-10-06T20:17:23.254Z,12.90
2022-10-06T20:20:24.831Z,13.80
2022-10-06T20:23:27.549Z,13.60
2022-10-06T20:26:32.054Z,14.23
2022-10-06T20:29:34.022Z,15.50
2022-10-06T20:32:35.615Z,15.00
2022-10-06T20:35:37.181Z,14.77
2022-10-06T20:38:58.453Z,14.40
2022-10-06T20:42:00.099Z,15.10
2022-10-06T20:45:01.665Z,15.68
2022-10-06T20:48:03.375Z,14.25
2022-10-06T20:51:12.412Z,15.23
2022-10-06T20:54:14.092Z,15.43
2022-10-06T20:57:15.620Z,15.90
2022-10-06T21:00:17.885Z,15.98
2022-10-06T21:03:19.427Z,15.55
2022-10-06T21:06:22.485Z,15.33
2022-10-06T21:09:28.710Z,15.23
2022-10-06T21:12:30.437Z,14.88
2022-10-06T21:15:32.072Z,15.68
2022-10-06T21:18:33.788Z,16.05
2022-10-06T21:21:36.660Z,15.90
2022-10-06T21:24:38.205Z,15.03
2022-10-06T21:27:40.300Z,15.82
2022-10-06T21:30:44.219Z,15.77
2022-10-06T21:33:46.410Z,15.68
2022-10-06T21:36:47.946Z,13.87
2022-10-06T21:39:49.522Z,14.63
2022-10-06T21:42:51.070Z,15.02
2022-10-06T21:46:10.689Z,14.98
2022-10-06T21:49:21.507Z,14.65
2022-10-06T21:52:23.160Z,14.83
2022-10-06T21:55:24.726Z,14.50
2022-10-06T21:58:26.512Z,14.82
2022-10-06T22:01:35.298Z,15.77
2022-10-06T22:04:37.634Z,16.27
2022-10-06T22:07:39.196Z,16.27
2022-10-06T22:10:40.779Z,14.90
2022-10-06T22:13:44.176Z,15.60
2022-10-06T22:16:45.903Z,16.35
2022-10-06T22:19:47.934Z,15.05
2022-10-06T22:22:51.141Z,15.50
2022-10-06T22:25:58.927Z,14.83
2022-10-06T22:29:00.544Z,16.45
2022-10-06T22:32:02.124Z,15.45
2022-10-06T22:35:03.835Z,15.35
2022-10-06T22:38:05.411Z,15.80
2022-10-06T22:41:08.579Z,15.17
2022-10-06T22:44:10.144Z,14.85
2022-10-06T22:47:11.732Z,14.90
2022-10-06T22:50:13.363Z,14.65
2022-10-06T22:53:16.063Z,15.70
2022-10-06T22:56:17.618Z,14.77
2022-10-06T22:59:19.184Z,14.85
2022-10-06T23:02:20.738Z,14.57
2022-10-06T23:05:22.379Z,15.23
2022-10-06T23:08:24.239Z,14.60
2022-10-06T23:11:26.005Z,13.30
2022-10-06T23:14:27.580Z,14.02
2022-10-06T23:17:29.146Z,13.15
2022-10-06T23:20:30.778Z,14.13
2022-10-06T23:23:32.440Z,13.53
2022-10-06T23:26:34.222Z,13.23
2022-10-06T23:29:35.782Z,13.35
2022-10-06T23:32:37.592Z,15.35
2022-10-06T23:35:39.136Z,15.23
2022-10-06T23:38:42.239Z,15.30
2022-10-06T23:41:43.876Z,16.53
2022-10-06T23:44:45.438Z,17.13
2022-10-06T23:47:47.373Z,17.60
2022-10-06T23:50:57.958Z,18.25
2022-10-06T23:53:59.483Z,18.40
2022-10-06T23:57:01.049Z,18.33
